sensor_id;sensor_type;location;lat;lon;timestamp;P1;durP1;ratioP1;P2;durP2;ratioP2
13461;SDS011;6803;45.264;5.468;2022-08-02T00:01:46;2.20;;;1.67;;
13461;SDS011;6803;45.264;5.468;2022-08-02T00:04:17;1.73;;;1.43;;
13461;SDS011;6803;45.264;5.468;2022-08-02T00:06:48;1.43;;;1.30;;
13461;SDS011;6803;45.264;5.468;2022-08-02T00:09:20;2.20;;;1.27;;
13461;SDS011;6803;45.264;5.468;2022-08-02T00:11:51;2.27;;;1.50;;
13461;SDS011;6803;45.264;5.468;2022-08-02T00:14:22;6.17;;;1.93;;
13461;SDS011;6803;45.264;5.468;2022-08-02T00:16:53;1.20;;;1.10;;
13461;SDS011;6803;45.264;5.468;2022-08-02T00:19:24;1.40;;;1.30;;
13461;SDS011;6803;45.264;5.468;2022-08-02T00:21:55;1.63;;;1.47;;
13461;SDS011;6803;45.264;5.468;2022-08-02T00:24:25;4.23;;;1.50;;
13461;SDS011;6803;45.264;5.468;2022-08-02T00:26:57;2.43;;;1.67;;
13461;SDS011;6803;45.264;5.468;2022-08-02T00:29:32;1.80;;;1.40;;
13461;SDS011;6803;45.264;5.468;2022-08-02T00:32:05;3.43;;;1.60;;
13461;SDS011;6803;45.264;5.468;2022-08-02T00:34:36;2.27;;;1.70;;
13461;SDS011;6803;45.264;5.468;2022-08-02T00:37:07;3.83;;;1.57;;
13461;SDS011;6803;45.264;5.468;2022-08-02T00:39:38;2.07;;;1.50;;
13461;SDS011;6803;45.264;5.468;2022-08-02T00:42:10;1.93;;;1.73;;
13461;SDS011;6803;45.264;5.468;2022-08-02T00:44:42;5.57;;;1.47;;
13461;SDS011;6803;45.264;5.468;2022-08-02T00:47:13;1.70;;;1.57;;
13461;SDS011;6803;45.264;5.468;2022-08-02T00:49:46;2.17;;;1.80;;
13461;SDS011;6803;45.264;5.468;2022-08-02T00:52:16;1.57;;;1.47;;
13461;SDS011;6803;45.264;5.468;2022-08-02T00:54:47;2.03;;;1.83;;
13461;SDS011;6803;45.264;5.468;2022-08-02T00:57:18;1.57;;;1.47;;
13461;SDS011;6803;45.264;5.468;2022-08-02T00:59:49;1.60;;;1.33;;
13461;SDS011;6803;45.264;5.468;2022-08-02T01:02:21;5.93;;;1.83;;
13461;SDS011;6803;45.264;5.468;2022-08-02T01:04:51;4.13;;;1.70;;
13461;SDS011;6803;45.264;5.468;2022-08-02T01:07:22;1.63;;;1.43;;
13461;SDS011;6803;45.264;5.468;2022-08-02T01:09:53;2.53;;;1.60;;
13461;SDS011;6803;45.264;5.468;2022-08-02T01:12:23;2.60;;;1.97;;
13461;SDS011;6803;45.264;5.468;2022-08-02T01:14:54;2.33;;;1.73;;
13461;SDS011;6803;45.264;5.468;2022-08-02T01:17:28;5.00;;;1.70;;
13461;SDS011;6803;45.264;5.468;2022-08-02T01:20:04;2.77;;;1.70;;
13461;SDS011;6803;45.264;5.468;2022-08-02T01:22:49;1.93;;;1.80;;
13461;SDS011;6803;45.264;5.468;2022-08-02T01:28:16;2.13;;;1.40;;
13461;SDS011;6803;45.264;5.468;2022-08-02T01:31:09;3.60;;;1.60;;
13461;SDS011;6803;45.264;5.468;2022-08-02T01:33:44;3.13;;;1.80;;
13461;SDS011;6803;45.264;5.468;2022-08-02T01:36:18;1.77;;;1.47;;
13461;SDS011;6803;45.264;5.468;2022-08-02T01:38:52;1.67;;;1.57;;
13461;SDS011;6803;45.264;5.468;2022-08-02T01:41:25;1.70;;;1.60;;
13461;SDS011;6803;45.264;5.468;2022-08-02T01:43:57;2.07;;;1.67;;
13461;SDS011;6803;45.264;5.468;2022-08-02T01:46:30;1.73;;;1.57;;
13461;SDS011;6803;45.264;5.468;2022-08-02T01:49:03;2.27;;;1.50;;
13461;SDS011;6803;45.264;5.468;2022-08-02T01:51:36;3.50;;;1.60;;
13461;SDS011;6803;45.264;5.468;2022-08-02T01:54:27;2.00;;;1.70;;
13461;SDS011;6803;45.264;5.468;2022-08-02T01:57:00;1.93;;;1.40;;
13461;SDS011;6803;45.264;5.468;2022-08-02T01:59:34;1.60;;;1.50;;
13461;SDS011;6803;45.264;5.468;2022-08-02T02:02:07;1.70;;;1.60;;
13461;SDS011;6803;45.264;5.468;2022-08-02T02:04:39;1.83;;;1.60;;
13461;SDS011;6803;45.264;5.468;2022-08-02T02:07:12;1.97;;;1.40;;
13461;SDS011;6803;45.264;5.468;2022-08-02T02:09:45;3.50;;;1.70;;
13461;SDS011;6803;45.264;5.468;2022-08-02T02:12:17;4.97;;;1.50;;
13461;SDS011;6803;45.264;5.468;2022-08-02T02:14:51;4.13;;;1.67;;
13461;SDS011;6803;45.264;5.468;2022-08-02T02:17:23;2.67;;;1.70;;
13461;SDS011;6803;45.264;5.468;2022-08-02T02:19:57;5.13;;;1.40;;
13461;SDS011;6803;45.264;5.468;2022-08-02T02:22:31;2.40;;;1.63;;
13461;SDS011;6803;45.264;5.468;2022-08-02T02:25:03;1.63;;;1.53;;
13461;SDS011;6803;45.264;5.468;2022-08-02T02:27:38;4.97;;;1.80;;
13461;SDS011;6803;45.264;5.468;2022-08-02T02:30:11;3.33;;;1.50;;
13461;SDS011;6803;45.264;5.468;2022-08-02T02:32:44;2.23;;;1.70;;
13461;SDS011;6803;45.264;5.468;2022-08-02T02:35:18;3.83;;;1.30;;
13461;SDS011;6803;45.264;5.468;2022-08-02T02:37:51;2.10;;;1.60;;
13461;SDS011;6803;45.264;5.468;2022-08-02T02:40:24;1.60;;;1.43;;
13461;SDS011;6803;45.264;5.468;2022-08-02T02:42:57;2.70;;;1.40;;
13461;SDS011;6803;45.264;5.468;2022-08-02T02:45:29;1.93;;;1.80;;
13461;SDS011;6803;45.264;5.468;2022-08-02T02:48:02;1.70;;;1.60;;
13461;SDS011;6803;45.264;5.468;2022-08-02T02:50:35;2.53;;;1.97;;
13461;SDS011;6803;45.264;5.468;2022-08-02T02:53:06;2.33;;;1.70;;
13461;SDS011;6803;45.264;5.468;2022-08-02T02:55:38;1.73;;;1.60;;
13461;SDS011;6803;45.264;5.468;2022-08-02T02:58:13;4.77;;;1.70;;
13461;SDS011;6803;45.264;5.468;2022-08-02T03:00:45;4.17;;;1.60;;
13461;SDS011;6803;45.264;5.468;2022-08-02T03:03:34;2.37;;;1.90;;
13461;SDS011;6803;45.264;5.468;2022-08-02T03:06:06;3.87;;;2.07;;
13461;SDS011;6803;45.264;5.468;2022-08-02T03:08:39;3.97;;;1.67;;
13461;SDS011;6803;45.264;5.468;2022-08-02T03:11:10;4.30;;;1.90;;
13461;SDS011;6803;45.264;5.468;2022-08-02T03:13:42;2.53;;;2.07;;
13461;SDS011;6803;45.264;5.468;2022-08-02T03:16:13;5.00;;;1.80;;
13461;SDS011;6803;45.264;5.468;2022-08-02T03:18:43;2.00;;;1.50;;
13461;SDS011;6803;45.264;5.468;2022-08-02T03:21:14;2.27;;;1.93;;
13461;SDS011;6803;45.264;5.468;2022-08-02T03:23:45;3.70;;;2.07;;
13461;SDS011;6803;45.264;5.468;2022-08-02T03:26:16;4.87;;;2.30;;
13461;SDS011;6803;45.264;5.468;2022-08-02T03:28:48;2.60;;;1.90;;
13461;SDS011;6803;45.264;5.468;2022-08-02T03:31:18;3.53;;;1.73;;
13461;SDS011;6803;45.264;5.468;2022-08-02T03:33:49;2.70;;;1.43;;
13461;SDS011;6803;45.264;5.468;2022-08-02T03:36:20;1.70;;;1.60;;
13461;SDS011;6803;45.264;5.468;2022-08-02T03:38:53;2.67;;;1.70;;
13461;SDS011;6803;45.264;5.468;2022-08-02T03:41:24;5.50;;;1.70;;
13461;SDS011;6803;45.264;5.468;2022-08-02T03:43:56;3.30;;;1.90;;
13461;SDS011;6803;45.264;5.468;2022-08-02T03:46:28;1.90;;;1.80;;
13461;SDS011;6803;45.264;5.468;2022-08-02T03:49:00;2.53;;;1.90;;
13461;SDS011;6803;45.264;5.468;2022-08-02T03:51:32;2.60;;;1.80;;
13461;SDS011;6803;45.264;5.468;2022-08-02T03:54:03;2.90;;;1.77;;
13461;SDS011;6803;45.264;5.468;2022-08-02T03:56:35;1.90;;;1.67;;
13461;SDS011;6803;45.264;5.468;2022-08-02T03:59:06;2.50;;;2.00;;
13461;SDS011;6803;45.264;5.468;2022-08-02T04:01:39;2.10;;;1.90;;
13461;SDS011;6803;45.264;5.468;2022-08-02T04:04:10;2.20;;;2.00;;
13461;SDS011;6803;45.264;5.468;2022-08-02T04:06:40;3.13;;;1.73;;
13461;SDS011;6803;45.264;5.468;2022-08-02T04:09:11;5.47;;;1.70;;
13461;SDS011;6803;45.264;5.468;2022-08-02T04:11:42;2.10;;;1.90;;
13461;SDS011;6803;45.264;5.468;2022-08-02T04:14:13;2.37;;;1.90;;
13461;SDS011;6803;45.264;5.468;2022-08-02T04:16:44;1.90;;;1.80;;
13461;SDS011;6803;45.264;5.468;2022-08-02T04:19:19;2.00;;;1.80;;
13461;SDS011;6803;45.264;5.468;2022-08-02T04:21:52;4.00;;;1.90;;
13461;SDS011;6803;45.264;5.468;2022-08-02T04:24:25;2.27;;;2.00;;
13461;SDS011;6803;45.264;5.468;2022-08-02T04:27:01;1.83;;;1.73;;
13461;SDS011;6803;45.264;5.468;2022-08-02T04:29:34;2.80;;;2.50;;
13461;SDS011;6803;45.264;5.468;2022-08-02T04:32:08;3.27;;;1.67;;
13461;SDS011;6803;45.264;5.468;2022-08-02T04:34:41;2.53;;;2.00;;
13461;SDS011;6803;45.264;5.468;2022-08-02T04:37:13;2.43;;;2.00;;
13461;SDS011;6803;45.264;5.468;2022-08-02T04:39:44;4.00;;;2.10;;
13461;SDS011;6803;45.264;5.468;2022-08-02T04:42:19;2.13;;;1.97;;
13461;SDS011;6803;45.264;5.468;2022-08-02T04:44:51;1.90;;;1.73;;
13461;SDS011;6803;45.264;5.468;2022-08-02T04:47:22;2.50;;;1.77;;
13461;SDS011;6803;45.264;5.468;2022-08-02T04:49:54;2.57;;;1.80;;
13461;SDS011;6803;45.264;5.468;2022-08-02T04:52:25;4.17;;;2.07;;
13461;SDS011;6803;45.264;5.468;2022-08-02T04:55:04;4.13;;;1.90;;
13461;SDS011;6803;45.264;5.468;2022-08-02T04:57:36;3.37;;;1.97;;
13461;SDS011;6803;45.264;5.468;2022-08-02T05:00:23;1.90;;;1.80;;
13461;SDS011;6803;45.264;5.468;2022-08-02T05:02:55;4.70;;;2.20;;
13461;SDS011;6803;45.264;5.468;2022-08-02T05:05:30;5.23;;;1.97;;
13461;SDS011;6803;45.264;5.468;2022-08-02T05:08:04;1.83;;;1.73;;
13461;SDS011;6803;45.264;5.468;2022-08-02T05:10:36;3.60;;;2.60;;
13461;SDS011;6803;45.264;5.468;2022-08-02T05:13:07;2.10;;;1.90;;
13461;SDS011;6803;45.264;5.468;2022-08-02T05:15:37;2.43;;;1.90;;
13461;SDS011;6803;45.264;5.468;2022-08-02T05:18:08;6.60;;;2.43;;
13461;SDS011;6803;45.264;5.468;2022-08-02T05:20:39;4.87;;;1.90;;
13461;SDS011;6803;45.264;5.468;2022-08-02T05:23:10;4.10;;;1.97;;
13461;SDS011;6803;45.264;5.468;2022-08-02T05:25:41;3.43;;;2.10;;
13461;SDS011;6803;45.264;5.468;2022-08-02T05:28:12;3.57;;;2.13;;
13461;SDS011;6803;45.264;5.468;2022-08-02T05:30:43;1.80;;;1.70;;
13461;SDS011;6803;45.264;5.468;2022-08-02T05:33:15;2.60;;;1.93;;
13461;SDS011;6803;45.264;5.468;2022-08-02T05:35:46;1.83;;;1.73;;
13461;SDS011;6803;45.264;5.468;2022-08-02T05:38:17;3.10;;;1.90;;
13461;SDS011;6803;45.264;5.468;2022-08-02T05:40:49;5.73;;;1.90;;
13461;SDS011;6803;45.264;5.468;2022-08-02T05:43:21;3.00;;;1.80;;
13461;SDS011;6803;45.264;5.468;2022-08-02T05:45:52;2.97;;;1.80;;
13461;SDS011;6803;45.264;5.468;2022-08-02T05:48:23;4.10;;;1.97;;
13461;SDS011;6803;45.264;5.468;2022-08-02T05:50:57;5.00;;;2.10;;
13461;SDS011;6803;45.264;5.468;2022-08-02T05:53:32;2.13;;;1.97;;
13461;SDS011;6803;45.264;5.468;2022-08-02T05:56:12;3.83;;;2.10;;
13461;SDS011;6803;45.264;5.468;2022-08-02T05:58:48;4.80;;;1.90;;
13461;SDS011;6803;45.264;5.468;2022-08-02T06:01:24;3.57;;;1.90;;
13461;SDS011;6803;45.264;5.468;2022-08-02T06:03:57;6.00;;;2.07;;
13461;SDS011;6803;45.264;5.468;2022-08-02T06:06:31;4.30;;;2.00;;
13461;SDS011;6803;45.264;5.468;2022-08-02T06:09:03;4.13;;;2.07;;
13461;SDS011;6803;45.264;5.468;2022-08-02T06:11:44;14.70;;;2.67;;
13461;SDS011;6803;45.264;5.468;2022-08-02T06:14:18;3.57;;;2.07;;
13461;SDS011;6803;45.264;5.468;2022-08-02T06:16:51;4.47;;;2.27;;
13461;SDS011;6803;45.264;5.468;2022-08-02T06:19:22;2.83;;;1.77;;
13461;SDS011;6803;45.264;5.468;2022-08-02T06:21:54;5.40;;;1.90;;
13461;SDS011;6803;45.264;5.468;2022-08-02T06:24:30;4.27;;;2.23;;
13461;SDS011;6803;45.264;5.468;2022-08-02T06:27:03;3.30;;;2.00;;
13461;SDS011;6803;45.264;5.468;2022-08-02T06:29:34;3.47;;;1.80;;
13461;SDS011;6803;45.264;5.468;2022-08-02T06:32:06;2.80;;;1.90;;
13461;SDS011;6803;45.264;5.468;2022-08-02T06:37:18;1.87;;;1.73;;
13461;SDS011;6803;45.264;5.468;2022-08-02T06:39:53;2.10;;;1.90;;
13461;SDS011;6803;45.264;5.468;2022-08-02T06:42:27;3.03;;;1.90;;
13461;SDS011;6803;45.264;5.468;2022-08-02T06:44:59;3.37;;;1.90;;
13461;SDS011;6803;45.264;5.468;2022-08-02T06:47:30;1.90;;;1.80;;
13461;SDS011;6803;45.264;5.468;2022-08-02T06:50:01;4.57;;;2.30;;
13461;SDS011;6803;45.264;5.468;2022-08-02T06:52:34;3.10;;;1.97;;
13461;SDS011;6803;45.264;5.468;2022-08-02T06:55:06;3.53;;;2.07;;
13461;SDS011;6803;45.264;5.468;2022-08-02T06:57:38;2.53;;;2.17;;
13461;SDS011;6803;45.264;5.468;2022-08-02T07:00:10;2.67;;;2.10;;
13461;SDS011;6803;45.264;5.468;2022-08-02T07:02:41;5.50;;;1.87;;
13461;SDS011;6803;45.264;5.468;2022-08-02T07:05:12;1.83;;;1.73;;
13461;SDS011;6803;45.264;5.468;2022-08-02T07:07:43;2.83;;;1.80;;
13461;SDS011;6803;45.264;5.468;2022-08-02T07:10:14;1.93;;;1.80;;
13461;SDS011;6803;45.264;5.468;2022-08-02T07:12:45;2.80;;;1.80;;
13461;SDS011;6803;45.264;5.468;2022-08-02T07:15:15;2.20;;;1.70;;
13461;SDS011;6803;45.264;5.468;2022-08-02T07:17:46;3.93;;;2.03;;
13461;SDS011;6803;45.264;5.468;2022-08-02T07:20:17;3.87;;;2.37;;
13461;SDS011;6803;45.264;5.468;2022-08-02T07:22:48;4.05;;;2.20;;
13461;SDS011;6803;45.264;5.468;2022-08-02T07:25:18;3.73;;;2.20;;
13461;SDS011;6803;45.264;5.468;2022-08-02T07:27:49;2.45;;;2.25;;
13461;SDS011;6803;45.264;5.468;2022-08-02T07:30:22;5.15;;;2.40;;
13461;SDS011;6803;45.264;5.468;2022-08-02T07:32:53;2.57;;;2.07;;
13461;SDS011;6803;45.264;5.468;2022-08-02T07:35:23;2.37;;;2.02;;
13461;SDS011;6803;45.264;5.468;2022-08-02T07:37:56;3.75;;;2.17;;
13461;SDS011;6803;45.264;5.468;2022-08-02T07:40:29;3.13;;;1.93;;
13461;SDS011;6803;45.264;5.468;2022-08-02T07:42:59;4.55;;;1.80;;
13461;SDS011;6803;45.264;5.468;2022-08-02T07:45:31;5.00;;;1.85;;
13461;SDS011;6803;45.264;5.468;2022-08-02T07:48:04;5.08;;;2.20;;
13461;SDS011;6803;45.264;5.468;2022-08-02T07:50:36;2.92;;;2.42;;
13461;SDS011;6803;45.264;5.468;2022-08-02T07:53:07;5.05;;;2.30;;
13461;SDS011;6803;45.264;5.468;2022-08-02T07:55:37;1.95;;;1.80;;
13461;SDS011;6803;45.264;5.468;2022-08-02T07:58:08;4.97;;;2.30;;
13461;SDS011;6803;45.264;5.468;2022-08-02T08:00:41;3.40;;;2.05;;
13461;SDS011;6803;45.264;5.468;2022-08-02T08:03:12;3.27;;;2.20;;
13461;SDS011;6803;45.264;5.468;2022-08-02T08:05:43;2.70;;;2.25;;
13461;SDS011;6803;45.264;5.468;2022-08-02T08:08:14;3.92;;;2.05;;
13461;SDS011;6803;45.264;5.468;2022-08-02T08:10:45;2.35;;;1.80;;
13461;SDS011;6803;45.264;5.468;2022-08-02T08:13:15;2.30;;;2.10;;
13461;SDS011;6803;45.264;5.468;2022-08-02T08:15:46;2.10;;;1.90;;
13461;SDS011;6803;45.264;5.468;2022-08-02T08:18:20;3.25;;;2.17;;
13461;SDS011;6803;45.264;5.468;2022-08-02T08:20:51;1.98;;;1.77;;
13461;SDS011;6803;45.264;5.468;2022-08-02T08:23:22;2.12;;;1.92;;
13461;SDS011;6803;45.264;5.468;2022-08-02T08:25:53;2.37;;;2.17;;
13461;SDS011;6803;45.264;5.468;2022-08-02T08:28:24;2.45;;;2.20;;
13461;SDS011;6803;45.264;5.468;2022-08-02T08:30:54;11.00;;;2.10;;
13461;SDS011;6803;45.264;5.468;2022-08-02T08:33:25;4.42;;;2.15;;
13461;SDS011;6803;45.264;5.468;2022-08-02T08:36:05;4.80;;;2.08;;
13461;SDS011;6803;45.264;5.468;2022-08-02T08:38:38;3.02;;;2.08;;
13461;SDS011;6803;45.264;5.468;2022-08-02T08:41:15;2.15;;;2.05;;
13461;SDS011;6803;45.264;5.468;2022-08-02T08:43:47;3.72;;;2.15;;
13461;SDS011;6803;45.264;5.468;2022-08-02T08:46:23;5.17;;;2.22;;
13461;SDS011;6803;45.264;5.468;2022-08-02T08:48:57;8.05;;;2.08;;
13461;SDS011;6803;45.264;5.468;2022-08-02T08:51:30;6.30;;;2.08;;
13461;SDS011;6803;45.264;5.468;2022-08-02T08:54:03;4.33;;;2.10;;
13461;SDS011;6803;45.264;5.468;2022-08-02T08:56:35;5.05;;;2.30;;
13461;SDS011;6803;45.264;5.468;2022-08-02T08:59:06;4.47;;;2.08;;
13461;SDS011;6803;45.264;5.468;2022-08-02T09:01:37;3.20;;;2.00;;
13461;SDS011;6803;45.264;5.468;2022-08-02T09:04:10;4.70;;;2.30;;
13461;SDS011;6803;45.264;5.468;2022-08-02T09:06:41;2.60;;;2.17;;
13461;SDS011;6803;45.264;5.468;2022-08-02T09:09:20;4.10;;;2.10;;
13461;SDS011;6803;45.264;5.468;2022-08-02T09:11:54;2.33;;;1.98;;
13461;SDS011;6803;45.264;5.468;2022-08-02T09:14:27;2.50;;;1.72;;
13461;SDS011;6803;45.264;5.468;2022-08-02T09:17:10;4.05;;;2.10;;
13461;SDS011;6803;45.264;5.468;2022-08-02T09:19:41;6.60;;;2.42;;
13461;SDS011;6803;45.264;5.468;2022-08-02T09:22:13;2.95;;;2.22;;
13461;SDS011;6803;45.264;5.468;2022-08-02T09:24:45;4.45;;;2.50;;
13461;SDS011;6803;45.264;5.468;2022-08-02T09:27:19;5.75;;;2.00;;
13461;SDS011;6803;45.264;5.468;2022-08-02T09:29:51;2.98;;;2.10;;
13461;SDS011;6803;45.264;5.468;2022-08-02T09:32:24;4.37;;;2.35;;
13461;SDS011;6803;45.264;5.468;2022-08-02T09:34:56;4.42;;;2.00;;
13461;SDS011;6803;45.264;5.468;2022-08-02T09:37:27;2.20;;;2.00;;
13461;SDS011;6803;45.264;5.468;2022-08-02T09:40:01;4.35;;;1.75;;
13461;SDS011;6803;45.264;5.468;2022-08-02T09:42:39;3.42;;;2.00;;
13461;SDS011;6803;45.264;5.468;2022-08-02T09:45:18;2.90;;;2.00;;
13461;SDS011;6803;45.264;5.468;2022-08-02T09:47:51;1.80;;;1.70;;
13461;SDS011;6803;45.264;5.468;2022-08-02T09:50:23;4.95;;;2.02;;
13461;SDS011;6803;45.264;5.468;2022-08-02T09:52:54;2.35;;;1.85;;
13461;SDS011;6803;45.264;5.468;2022-08-02T09:55:26;4.33;;;2.00;;
13461;SDS011;6803;45.264;5.468;2022-08-02T10:00:53;3.25;;;1.75;;
13461;SDS011;6803;45.264;5.468;2022-08-02T10:03:26;2.15;;;1.98;;
13461;SDS011;6803;45.264;5.468;2022-08-02T10:05:58;2.35;;;2.15;;
13461;SDS011;6803;45.264;5.468;2022-08-02T10:08:31;3.52;;;1.80;;
13461;SDS011;6803;45.264;5.468;2022-08-02T10:11:03;3.47;;;2.10;;
13461;SDS011;6803;45.264;5.468;2022-08-02T10:13:35;2.22;;;1.60;;
13461;SDS011;6803;45.264;5.468;2022-08-02T10:16:06;3.72;;;1.92;;
13461;SDS011;6803;45.264;5.468;2022-08-02T10:18:39;3.33;;;1.60;;
13461;SDS011;6803;45.264;5.468;2022-08-02T10:21:12;2.45;;;1.95;;
13461;SDS011;6803;45.264;5.468;2022-08-02T10:23:45;6.15;;;1.70;;
13461;SDS011;6803;45.264;5.468;2022-08-02T10:26:18;2.17;;;1.65;;
13461;SDS011;6803;45.264;5.468;2022-08-02T10:28:49;2.87;;;1.82;;
13461;SDS011;6803;45.264;5.468;2022-08-02T10:31:23;2.58;;;1.70;;
13461;SDS011;6803;45.264;5.468;2022-08-02T10:33:56;2.30;;;1.80;;
13461;SDS011;6803;45.264;5.468;2022-08-02T10:36:29;2.35;;;1.60;;
13461;SDS011;6803;45.264;5.468;2022-08-02T10:39:02;2.67;;;1.55;;
13461;SDS011;6803;45.264;5.468;2022-08-02T10:41:40;4.00;;;1.70;;
13461;SDS011;6803;45.264;5.468;2022-08-02T10:44:22;3.40;;;1.50;;
13461;SDS011;6803;45.264;5.468;2022-08-02T10:47:19;3.75;;;1.72;;
13461;SDS011;6803;45.264;5.468;2022-08-02T10:49:52;3.12;;;1.67;;
13461;SDS011;6803;45.264;5.468;2022-08-02T10:52:25;3.77;;;1.60;;
13461;SDS011;6803;45.264;5.468;2022-08-02T10:54:57;1.75;;;1.45;;
13461;SDS011;6803;45.264;5.468;2022-08-02T10:57:31;2.83;;;1.62;;
13461;SDS011;6803;45.264;5.468;2022-08-02T11:00:11;5.75;;;1.47;;
13461;SDS011;6803;45.264;5.468;2022-08-02T11:02:42;2.30;;;1.40;;
13461;SDS011;6803;45.264;5.468;2022-08-02T11:05:16;1.75;;;1.50;;
13461;SDS011;6803;45.264;5.468;2022-08-02T11:07:48;4.37;;;1.65;;
13461;SDS011;6803;45.264;5.468;2022-08-02T11:13:09;2.58;;;1.82;;
13461;SDS011;6803;45.264;5.468;2022-08-02T11:15:51;1.62;;;1.52;;
13461;SDS011;6803;45.264;5.468;2022-08-02T11:21:33;2.72;;;1.50;;
13461;SDS011;6803;45.264;5.468;2022-08-02T11:24:26;1.42;;;1.32;;
13461;SDS011;6803;45.264;5.468;2022-08-02T11:27:00;2.42;;;1.37;;
13461;SDS011;6803;45.264;5.468;2022-08-02T11:29:33;4.55;;;1.15;;
13461;SDS011;6803;45.264;5.468;2022-08-02T11:32:06;2.08;;;1.32;;
13461;SDS011;6803;45.264;5.468;2022-08-02T11:34:38;2.30;;;1.50;;
13461;SDS011;6803;45.264;5.468;2022-08-02T11:37:10;2.65;;;1.55;;
13461;SDS011;6803;45.264;5.468;2022-08-02T11:39:43;3.62;;;1.45;;
13461;SDS011;6803;45.264;5.468;2022-08-02T11:42:31;4.22;;;1.60;;
13461;SDS011;6803;45.264;5.468;2022-08-02T11:45:03;4.95;;;1.57;;
13461;SDS011;6803;45.264;5.468;2022-08-02T11:47:44;2.72;;;1.52;;
13461;SDS011;6803;45.264;5.468;2022-08-02T11:50:16;2.77;;;1.20;;
13461;SDS011;6803;45.264;5.468;2022-08-02T11:52:49;1.57;;;1.20;;
13461;SDS011;6803;45.264;5.468;2022-08-02T11:55:26;1.60;;;1.50;;
13461;SDS011;6803;45.264;5.468;2022-08-02T11:57:57;1.57;;;1.47;;
13461;SDS011;6803;45.264;5.468;2022-08-02T12:00:31;1.75;;;1.27;;
13461;SDS011;6803;45.264;5.468;2022-08-02T12:03:03;2.85;;;1.37;;
13461;SDS011;6803;45.264;5.468;2022-08-02T12:05:35;1.95;;;1.32;;
13461;SDS011;6803;45.264;5.468;2022-08-02T12:08:08;1.50;;;1.22;;
13461;SDS011;6803;45.264;5.468;2022-08-02T12:10:39;2.30;;;0.90;;
13461;SDS011;6803;45.264;5.468;2022-08-02T12:13:16;2.25;;;1.25;;
13461;SDS011;6803;45.264;5.468;2022-08-02T12:15:46;1.92;;;1.00;;
13461;SDS011;6803;45.264;5.468;2022-08-02T12:18:18;3.70;;;1.00;;
13461;SDS011;6803;45.264;5.468;2022-08-02T12:21:20;2.67;;;1.00;;
13461;SDS011;6803;45.264;5.468;2022-08-02T12:23:52;1.35;;;1.17;;
13461;SDS011;6803;45.264;5.468;2022-08-02T12:26:25;1.70;;;1.57;;
13461;SDS011;6803;45.264;5.468;2022-08-02T12:28:56;1.25;;;1.15;;
13461;SDS011;6803;45.264;5.468;2022-08-02T12:31:38;2.80;;;1.40;;
13461;SDS011;6803;45.264;5.468;2022-08-02T12:34:13;3.17;;;1.25;;
13461;SDS011;6803;45.264;5.468;2022-08-02T12:36:56;1.42;;;1.20;;
13461;SDS011;6803;45.264;5.468;2022-08-02T12:39:36;2.20;;;1.40;;
13461;SDS011;6803;45.264;5.468;2022-08-02T12:42:08;0.90;;;0.90;;
13461;SDS011;6803;45.264;5.468;2022-08-02T12:44:49;1.20;;;1.05;;
13461;SDS011;6803;45.264;5.468;2022-08-02T12:47:21;1.30;;;1.12;;
13461;SDS011;6803;45.264;5.468;2022-08-02T12:50:13;1.52;;;1.20;;
13461;SDS011;6803;45.264;5.468;2022-08-02T12:52:47;2.77;;;1.40;;
13461;SDS011;6803;45.264;5.468;2022-08-02T12:55:19;1.10;;;1.00;;
13461;SDS011;6803;45.264;5.468;2022-08-02T12:57:55;1.87;;;1.45;;
13461;SDS011;6803;45.264;5.468;2022-08-02T13:00:28;7.40;;;1.55;;
13461;SDS011;6803;45.264;5.468;2022-08-02T13:02:59;1.52;;;1.10;;
13461;SDS011;6803;45.264;5.468;2022-08-02T13:05:33;1.10;;;1.00;;
13461;SDS011;6803;45.264;5.468;2022-08-02T13:08:06;1.55;;;1.02;;
13461;SDS011;6803;45.264;5.468;2022-08-02T13:10:37;2.70;;;1.30;;
13461;SDS011;6803;45.264;5.468;2022-08-02T13:13:10;1.15;;;1.05;;
13461;SDS011;6803;45.264;5.468;2022-08-02T13:15:43;1.32;;;1.05;;
13461;SDS011;6803;45.264;5.468;2022-08-02T13:18:16;1.52;;;1.40;;
13461;SDS011;6803;45.264;5.468;2022-08-02T13:20:46;3.30;;;1.37;;
13461;SDS011;6803;45.264;5.468;2022-08-02T13:23:17;2.17;;;1.50;;
13461;SDS011;6803;45.264;5.468;2022-08-02T13:25:48;3.50;;;1.42;;
13461;SDS011;6803;45.264;5.468;2022-08-02T13:28:22;1.72;;;1.32;;
13461;SDS011;6803;45.264;5.468;2022-08-02T13:30:54;1.32;;;1.22;;
13461;SDS011;6803;45.264;5.468;2022-08-02T13:33:26;1.85;;;1.10;;
13461;SDS011;6803;45.264;5.468;2022-08-02T13:35:57;3.02;;;1.25;;
13461;SDS011;6803;45.264;5.468;2022-08-02T13:38:27;1.75;;;1.32;;
13461;SDS011;6803;45.264;5.468;2022-08-02T13:40:58;1.15;;;1.02;;
13461;SDS011;6803;45.264;5.468;2022-08-02T13:43:38;6.25;;;1.42;;
13461;SDS011;6803;45.264;5.468;2022-08-02T13:46:11;1.75;;;1.17;;
13461;SDS011;6803;45.264;5.468;2022-08-02T13:51:31;2.37;;;1.27;;
13461;SDS011;6803;45.264;5.468;2022-08-02T13:54:03;3.65;;;1.92;;
13461;SDS011;6803;45.264;5.468;2022-08-02T13:56:34;3.92;;;2.40;;
13461;SDS011;6803;45.264;5.468;2022-08-02T13:59:05;3.87;;;1.70;;
13461;SDS011;6803;45.264;5.468;2022-08-02T14:01:38;1.72;;;1.55;;
13461;SDS011;6803;45.264;5.468;2022-08-02T14:04:08;7.33;;;1.45;;
13461;SDS011;6803;45.264;5.468;2022-08-02T14:06:39;1.12;;;1.00;;
13461;SDS011;6803;45.264;5.468;2022-08-02T14:09:10;1.40;;;1.25;;
13461;SDS011;6803;45.264;5.468;2022-08-02T14:11:42;1.90;;;1.30;;
13461;SDS011;6803;45.264;5.468;2022-08-02T14:14:13;1.52;;;1.27;;
13461;SDS011;6803;45.264;5.468;2022-08-02T14:16:44;2.37;;;1.20;;
13461;SDS011;6803;45.264;5.468;2022-08-02T14:19:15;1.65;;;1.35;;
13461;SDS011;6803;45.264;5.468;2022-08-02T14:21:47;1.82;;;1.30;;
13461;SDS011;6803;45.264;5.468;2022-08-02T14:24:20;4.53;;;1.07;;
13461;SDS011;6803;45.264;5.468;2022-08-02T14:26:51;4.83;;;1.27;;
13461;SDS011;6803;45.264;5.468;2022-08-02T14:29:22;1.62;;;1.30;;
13461;SDS011;6803;45.264;5.468;2022-08-02T14:31:53;1.65;;;1.47;;
13461;SDS011;6803;45.264;5.468;2022-08-02T14:34:23;6.85;;;1.45;;
13461;SDS011;6803;45.264;5.468;2022-08-02T14:36:54;2.40;;;1.52;;
13461;SDS011;6803;45.264;5.468;2022-08-02T14:39:25;2.47;;;1.32;;
13461;SDS011;6803;45.264;5.468;2022-08-02T14:41:57;1.40;;;1.30;;
13461;SDS011;6803;45.264;5.468;2022-08-02T14:44:28;1.32;;;0.93;;
13461;SDS011;6803;45.264;5.468;2022-08-02T14:46:59;2.90;;;1.27;;
13461;SDS011;6803;45.264;5.468;2022-08-02T14:49:30;2.98;;;1.47;;
13461;SDS011;6803;45.264;5.468;2022-08-02T14:52:02;2.02;;;1.37;;
13461;SDS011;6803;45.264;5.468;2022-08-02T14:54:33;3.25;;;1.57;;
13461;SDS011;6803;45.264;5.468;2022-08-02T14:57:04;2.67;;;1.00;;
13461;SDS011;6803;45.264;5.468;2022-08-02T14:59:35;1.07;;;0.98;;
13461;SDS011;6803;45.264;5.468;2022-08-02T15:02:07;0.98;;;0.82;;
13461;SDS011;6803;45.264;5.468;2022-08-02T15:04:40;2.37;;;0.85;;
13461;SDS011;6803;45.264;5.468;2022-08-02T15:07:12;5.95;;;1.05;;
13461;SDS011;6803;45.264;5.468;2022-08-02T15:09:43;1.85;;;0.80;;
13461;SDS011;6803;45.264;5.468;2022-08-02T15:12:14;2.47;;;1.00;;
13461;SDS011;6803;45.264;5.468;2022-08-02T15:14:45;3.30;;;1.02;;
13461;SDS011;6803;45.264;5.468;2022-08-02T15:17:16;1.47;;;1.10;;
13461;SDS011;6803;45.264;5.468;2022-08-02T15:19:46;1.17;;;0.65;;
13461;SDS011;6803;45.264;5.468;2022-08-02T15:22:19;2.55;;;0.93;;
13461;SDS011;6803;45.264;5.468;2022-08-02T15:24:50;2.30;;;1.02;;
13461;SDS011;6803;45.264;5.468;2022-08-02T15:27:21;2.50;;;0.85;;
13461;SDS011;6803;45.264;5.468;2022-08-02T15:29:52;1.37;;;1.27;;
13461;SDS011;6803;45.264;5.468;2022-08-02T15:32:25;2.05;;;1.37;;
13461;SDS011;6803;45.264;5.468;2022-08-02T15:34:56;1.45;;;0.93;;
13461;SDS011;6803;45.264;5.468;2022-08-02T15:37:27;2.20;;;1.35;;
13461;SDS011;6803;45.264;5.468;2022-08-02T15:39:59;1.90;;;0.95;;
13461;SDS011;6803;45.264;5.468;2022-08-02T15:42:30;2.35;;;1.37;;
13461;SDS011;6803;45.264;5.468;2022-08-02T15:45:01;1.47;;;1.00;;
13461;SDS011;6803;45.264;5.468;2022-08-02T15:47:32;3.05;;;1.00;;
13461;SDS011;6803;45.264;5.468;2022-08-02T15:50:04;4.33;;;1.22;;
13461;SDS011;6803;45.264;5.468;2022-08-02T15:52:37;1.77;;;0.88;;